Time;durP1;ratioP1;P1;durP2;ratioP2;P2;SDS_P1;SDS_P2;PMS_P1;PMS_P2;Temp;Humidity;BMP_temperature;BMP_pressure;BME280_temperature;BME280_humidity;BME280_pressure;Samples;Min_cycle;Max_cycle;Signal;HPM_P1;HPM_P2
2021/12/13 00:01:07;;;;;;;;;;;;;;;9.41;96.61;102605.50;4973444;28;103065;-34
2021/12/13 00:03:49;;;;;;;1.33;0.77;;;;;;;9.39;96.55;102605.56;4973517;28;104371;-34
2021/12/13 00:06:22;;;;;;;;;;;;;;;9.33;96.59;102595.78;4974437;28;96780;-34
2021/12/13 00:08:53;;;;;;;;;;;;;;;9.34;96.41;102597.59;4972365;28;101036;-34
2021/12/13 00:11:23;;;;;;;1.88;0.75;;;;;;;9.34;96.38;102593.97;4972729;28;101086;-34
2021/12/13 00:13:53;;;;;;;1.30;0.57;;;;;;;9.30;96.38;102592.31;4972653;28;96595;-34
2021/12/13 00:16:42;;;;;;;1.15;0.93;;;;;;;9.33;96.40;102594.91;4972638;28;96699;-34
2021/12/13 00:19:15;;;;;;;2.30;1.02;;;;;;;9.33;96.42;102600.31;4972360;28;101129;-34
2021/12/13 00:21:46;;;;;;;2.00;1.08;;;;;;;9.29;96.34;102594.09;4972354;28;101189;-34
2021/12/13 00:24:23;;;;;;;1.67;1.00;;;;;;;9.30;96.22;102598.59;4972614;28;96528;-34
2021/12/13 00:26:52;;;;;;;9.75;1.05;;;;;;;9.26;96.38;102591.50;4974342;28;96520;-34
2021/12/13 00:29:26;;;;;;;3.63;1.15;;;;;;;9.23;96.39;102588.88;4972208;28;100861;-34
2021/12/13 00:32:14;;;;;;;1.83;1.08;;;;;;;9.23;96.23;102593.41;4973527;28;99429;-34
2021/12/13 00:34:48;;;;;;;1.88;0.73;;;;;;;9.20;96.17;102602.50;4973179;28;96628;-34
2021/12/13 00:37:37;;;;;;;3.08;1.05;;;;;;;9.16;96.30;102597.22;4972336;28;96552;-33
2021/12/13 00:40:08;;;;;;;1.13;0.80;;;;;;;9.12;96.11;102596.41;4972034;28;102189;-34
2021/12/13 00:42:42;;;;;;;0.80;0.60;;;;;;;9.13;96.14;102592.78;4972190;28;100971;-34
2021/12/13 00:45:11;;;;;;;3.10;0.82;;;;;;;9.12;96.38;102594.56;4973463;28;96648;-34
2021/12/13 00:47:39;;;;;;;1.85;1.27;;;;;;;9.12;96.34;102593.69;4972204;28;96854;-34
2021/12/13 00:50:26;;;;;;;2.30;1.17;;;;;;;9.15;96.26;102612.53;4971918;28;100828;-34
2021/12/13 00:52:53;;;;;;;1.58;1.00;;;;;;;9.10;95.93;102603.66;4971892;28;103144;-34
2021/12/13 00:55:23;;;;;;;2.70;1.00;;;;;;;9.15;96.02;102615.22;4971602;28;98263;-34
2021/12/13 00:58:05;;;;;;;1.52;0.82;;;;;;;9.13;96.22;102609.88;4972034;28;96665;-34
2021/12/13 01:00:35;;;;;;;2.03;1.20;;;;;;;9.06;96.25;102602.88;4972592;28;98300;-34
2021/12/13 01:03:10;;;;;;;1.73;1.17;;;;;;;9.14;96.12;102614.34;4971334;28;102525;-34
2021/12/13 01:05:53;;;;;;;1.50;0.93;;;;;;;9.14;96.02;102619.75;4973186;28;96582;-34
2021/12/13 01:08:56;;;;;;;3.67;1.40;;;;;;;9.14;96.16;102616.16;4971836;28;96761;-34
2021/12/13 01:11:49;;;;;;;2.92;1.58;;;;;;;9.14;96.14;102621.56;4972748;28;97762;-34
2021/12/13 01:14:33;;;;;;;6.20;1.50;;;;;;;9.16;96.10;102627.84;4973196;28;97352;-34
2021/12/13 01:17:36;;;;;;;1.60;1.00;;;;;;;9.11;95.98;102616.25;4971711;28;96818;-34
2021/12/13 01:20:42;;;;;;;3.63;1.98;;;;;;;9.13;95.82;102623.41;4972252;28;96880;-34
2021/12/13 01:23:27;;;;;;;4.40;1.88;;;;;;;9.12;95.69;102620.72;4971405;28;100942;-34
2021/12/13 01:26:02;;;;;;;3.20;1.80;;;;;;;9.10;95.44;102622.56;4972928;28;97965;-34
2021/12/13 01:29:01;;;;;;;3.33;1.67;;;;;;;9.14;95.73;102625.16;4972766;28;96641;-34
2021/12/13 01:31:34;;;;;;;4.18;1.88;;;;;;;9.12;95.51;102623.44;4973417;28;97037;-34
2021/12/13 01:34:05;;;;;;;4.03;1.98;;;;;;;9.12;95.60;102628.84;4972656;28;97981;-34
2021/12/13 01:36:43;;;;;;;4.38;2.30;;;;;;;9.07;95.60;102622.66;4971429;28;101171;-34
2021/12/13 01:39:17;;;;;;;5.97;2.58;;;;;;;9.14;95.53;102638.69;4972732;28;96504;-34
2021/12/13 01:41:47;;;;;;;3.63;2.05;;;;;;;9.11;95.58;102627.06;4973100;28;96615;-34
2021/12/13 01:44:21;;;;;;;7.35;3.35;;;;;;;9.13;95.54;102638.75;4971160;28;101041;-34
2021/12/13 01:46:51;;;;;;;4.32;2.45;;;;;;;9.09;95.64;102631.63;4972883;28;97805;-34
2021/12/13 01:49:19;;;;;;;10.10;2.83;;;;;;;9.07;95.36;102619.97;4972804;28;96635;-34
2021/12/13 01:51:45;;;;;;;4.05;2.40;;;;;;;9.06;95.80;102624.50;4971261;28;96565;-34
2021/12/13 01:54:20;;;;;;;9.15;3.42;;;;;;;9.08;95.67;102629.84;4972018;28;97400;-34
2021/12/13 02:02:28;;;;;;;9.27;4.18;;;;;;;9.06;95.63;102632.59;4970674;28;96505;-34
2021/12/13 02:05:01;;;;;;;12.60;3.72;;;;;;;9.03;95.43;102635.38;4960949;28;99528;-34
2021/12/13 02:07:36;;;;;;;6.13;3.13;;;;;;;9.10;95.53;102639.69;4971117;28;101044;-34
2021/12/13 02:10:05;;;;;;;6.03;2.95;;;;;;;9.09;95.35;102642.44;4970999;28;96679;-34
2021/12/13 02:12:34;;;;;;;3.28;2.10;;;;;;;9.04;95.11;102631.75;4971481;28;96790;-34
2021/12/13 02:17:46;;;;;;;7.13;3.45;;;;;;;9.10;95.36;102631.56;4972593;28;97001;-34
2021/12/13 02:20:33;;;;;;;7.45;3.45;;;;;;;9.05;95.41;102621.81;4970404;28;96983;-34
2021/12/13 02:22:59;;;;;;;7.05;3.55;;;;;;;9.01;95.29;102620.13;4970869;28;99788;-34
2021/12/13 02:25:30;;;;;;;7.63;3.88;;;;;;;9.04;95.26;102629.03;4972216;28;97271;-34
2021/12/13 02:28:06;;;;;;;7.03;3.50;;;;;;;9.04;95.29;102637.16;4970677;28;100687;-34
2021/12/13 02:30:43;;;;;;;5.70;2.65;;;;;;;9.08;95.05;102641.56;4970382;28;96688;-34
2021/12/13 02:33:15;;;;;;;9.80;3.97;;;;;;;9.12;95.19;102645.06;4972136;28;96815;-34
2021/12/13 02:35:46;;;;;;;7.15;3.42;;;;;;;9.11;95.09;102636.06;4970598;28;101186;-34
2021/12/13 02:38:13;;;;;;;8.57;3.88;;;;;;;9.09;95.04;102646.03;4970945;28;101240;-34
2021/12/13 02:40:40;;;;;;;6.32;3.85;;;;;;;9.09;95.26;102650.56;4970805;28;96486;-34
2021/12/13 02:43:10;;;;;;;11.07;3.47;;;;;;;9.08;95.19;102648.75;4970388;28;96825;-34
2021/12/13 02:45:43;;;;;;;5.85;3.03;;;;;;;9.11;95.05;102651.41;4969913;28;101063;-34
2021/12/13 02:48:22;;;;;;;7.63;3.53;;;;;;;9.07;95.04;102639.78;4970397;28;100921;-34
2021/12/13 02:50:56;;;;;;;11.68;4.45;;;;;;;9.11;94.96;102637.88;4970532;28;96696;-34
2021/12/13 02:53:29;;;;;;;7.13;3.83;;;;;;;9.09;95.13;102634.34;4971846;28;96725;-34
2021/12/13 02:55:55;;;;;;;10.75;5.65;;;;;;;9.06;94.99;102624.50;4970432;28;102260;-34
2021/12/13 02:58:23;;;;;;;7.68;3.70;;;;;;;9.08;94.97;102624.44;4971806;28;97247;-34
2021/12/13 03:00:57;;;;;;;7.70;3.40;;;;;;;9.13;94.91;102631.50;4970377;28;97059;-34
2021/12/13 03:03:29;;;;;;;8.85;4.25;;;;;;;9.07;94.79;102628.06;4972381;28;96514;-34
2021/12/13 03:05:56;;;;;;;10.45;3.25;;;;;;;9.09;94.82;102637.03;4969981;28;100813;-34
2021/12/13 03:08:38;;;;;;;5.70;3.55;;;;;;;9.11;94.93;102640.59;4970324;28;101095;-34
2021/12/13 03:11:09;;;;;;;6.13;3.10;;;;;;;9.08;95.07;102635.25;4969844;28;97640;-34
2021/12/13 03:13:34;;;;;;;6.35;3.00;;;;;;;9.10;94.55;102628.88;4970304;28;96730;-34
2021/12/13 03:16:10;;;;;;;4.85;2.83;;;;;;;9.12;94.73;102636.94;4972392;28;97458;-34
2021/12/13 03:18:46;;;;;;;12.68;3.10;;;;;;;9.08;94.42;102622.63;4973335;28;102067;-34
2021/12/13 03:21:34;;;;;;;8.50;2.58;;;;;;;9.08;94.48;102621.72;4973563;28;96612;-34
2021/12/13 03:24:25;;;;;;;4.93;2.20;;;;;;;9.11;94.20;102633.34;4973506;28;96609;-34
2021/12/13 03:27:16;;;;;;;5.78;3.17;;;;;;;9.12;94.38;102634.25;4974585;28;99124;-34
2021/12/13 03:29:57;;;;;;;5.68;2.90;;;;;;;9.12;94.41;102634.25;4974868;28;99279;-34
2021/12/13 03:32:22;;;;;;;7.43;3.55;;;;;;;9.07;94.21;102630.78;4973340;28;96718;-34
2021/12/13 03:35:02;;;;;;;5.85;3.03;;;;;;;9.08;94.35;102629.84;4973275;28;96769;-34
2021/12/13 03:37:32;;;;;;;4.32;2.58;;;;;;;9.09;94.45;102623.50;4972794;28;100997;-34
2021/12/13 03:40:06;;;;;;;4.57;2.72;;;;;;;9.08;94.27;102630.75;4974605;28;98164;-34
2021/12/13 03:42:41;;;;;;;5.57;3.38;;;;;;;9.07;94.30;102628.97;4973272;28;96526;-34
2021/12/13 03:45:16;;;;;;;5.05;3.10;;;;;;;9.09;94.18;102624.41;4973318;28;96568;-34
2021/12/13 03:47:51;;;;;;;5.20;2.80;;;;;;;9.08;94.21;102629.84;4973093;28;101237;-34
2021/12/13 03:50:24;;;;;;;3.80;2.45;;;;;;;9.03;94.21;102616.44;4972864;28;101322;-34
2021/12/13 03:52:53;;;;;;;6.05;3.17;;;;;;;9.04;94.15;102618.22;4973025;28;96565;-34
2021/12/13 03:55:20;;;;;;;5.40;2.67;;;;;;;9.09;94.18;102623.50;4973034;28;96848;-34
2021/12/13 03:57:51;;;;;;;5.70;3.53;;;;;;;9.06;94.18;102618.19;4972816;28;100725;-34
2021/12/13 04:00:20;;;;;;;4.03;2.80;;;;;;;9.05;93.94;102621.81;4972867;28;100636;-34
2021/12/13 04:02:46;;;;;;;6.18;3.47;;;;;;;9.01;93.90;102623.72;4972325;28;96771;-34
2021/12/13 04:05:16;;;;;;;5.80;2.88;;;;;;;9.05;94.00;102633.50;4972623;28;96981;-34
2021/12/13 04:07:45;;;;;;;9.63;2.88;;;;;;;9.06;93.93;102631.72;4972548;28;100471;-34
2021/12/13 04:10:13;;;;;;;5.10;2.88;;;;;;;9.06;93.89;102616.38;4972580;28;100902;-34
2021/12/13 04:12:49;;;;;;;6.35;3.30;;;;;;;9.03;93.72;102620.97;4972563;28;96663;-34
2021/12/13 04:15:31;;;;;;;4.35;2.90;;;;;;;9.06;93.73;102621.78;4974200;28;96638;-34
2021/12/13 04:18:13;;;;;;;5.95;2.80;;;;;;;9.06;93.72;102615.50;4974051;28;97913;-34
2021/12/13 04:20:41;;;;;;;5.10;2.95;;;;;;;9.03;93.97;102616.44;4974351;28;97895;-34
2021/12/13 04:23:20;;;;;;;5.32;2.45;;;;;;;9.06;93.84;102620.91;4972487;28;96479;-34
2021/12/13 04:25:48;;;;;;;6.13;2.83;;;;;;;8.96;93.58;102608.53;4972505;28;96659;-34
2021/12/13 04:28:21;;;;;;;7.95;2.42;;;;;;;9.01;93.82;102621.03;4971207;28;101022;-34
2021/12/13 04:31:01;;;;;;;4.93;3.45;;;;;;;9.05;93.39;102632.63;4972206;28;100785;-34
2021/12/13 04:33:35;;;;;;;6.60;2.88;;;;;;;9.02;93.13;102632.72;4971981;28;96795;-34
2021/12/13 04:36:14;;;;;;;5.03;2.65;;;;;;;9.02;93.14;102632.72;4972296;28;96543;-34
2021/12/13 04:38:59;;;;;;;5.90;2.92;;;;;;;8.99;93.32;102625.59;4972199;28;100743;-34
2021/12/13 04:41:35;;;;;;;6.50;2.75;;;;;;;9.02;93.38;102630.00;4972213;28;100756;-34
2021/12/13 04:44:12;;;;;;;5.55;2.65;;;;;;;8.99;93.11;102625.59;4972171;28;96622;-34
2021/12/13 04:46:42;;;;;;;9.13;2.83;;;;;;;8.99;93.24;102632.81;4973963;28;96771;-34
2021/12/13 04:49:15;;;;;;;7.53;2.88;;;;;;;9.03;93.13;102637.19;4972032;28;100854;-34
2021/12/13 04:51:52;;;;;;;7.07;2.42;;;;;;;9.03;92.87;102624.56;4971864;28;101038;-34
2021/12/13 04:54:18;;;;;;;7.25;2.90;;;;;;;8.99;93.02;102625.59;4971137;28;97386;-34
2021/12/13 04:56:45;;;;;;;5.28;3.00;;;;;;;8.98;92.79;102628.31;4973598;28;96740;-34
2021/12/13 04:59:13;;;;;;;5.38;3.00;;;;;;;9.00;92.95;102629.16;4971814;28;99868;-34
2021/12/13 05:01:40;;;;;;;6.43;2.55;;;;;;;9.01;92.78;102639.03;4971792;28;100932;-34
2021/12/13 05:04:08;;;;;;;8.98;3.03;;;;;;;9.03;92.82;102637.19;4971523;28;96681;-34
2021/12/13 05:06:36;;;;;;;4.85;2.78;;;;;;;8.98;92.64;102625.59;4972017;28;96787;-34
2021/12/13 05:09:06;;;;;;;8.15;3.85;;;;;;;8.98;92.67;102628.31;4971688;28;100854;-34
2021/12/13 05:11:37;;;;;;;5.40;2.70;;;;;;;9.00;92.72;102627.34;4971941;28;101259;-34
2021/12/13 05:14:04;;;;;;;5.95;2.63;;;;;;;8.98;92.44;102631.91;4971944;28;96626;-34
2021/12/13 05:16:55;;;;;;;5.45;2.88;;;;;;;8.91;92.43;102628.50;4971762;28;96822;-34
2021/12/13 05:19:54;;;;;;;5.90;3.17;;;;;;;8.96;92.57;102641.84;4971188;28;100804;-34
2021/12/13 05:22:21;;;;;;;4.82;2.67;;;;;;;8.94;92.82;102635.63;4971862;28;100806;-34
2021/12/13 05:24:55;;;;;;;9.77;2.90;;;;;;;8.94;92.15;102638.34;4971695;28;96719;-34
2021/12/13 05:27:40;;;;;;;3.95;2.58;;;;;;;8.95;92.03;102631.09;4971568;28;96723;-34
2021/12/13 05:30:16;;;;;;;10.38;3.08;;;;;;;8.99;92.40;102641.81;4972635;28;99427;-34
2021/12/13 05:32:48;;;;;;;4.25;2.53;;;;;;;8.97;91.93;102634.66;4971453;28;100919;-34
2021/12/13 05:35:28;;;;;;;10.93;2.83;;;;;;;8.99;92.07;102640.91;4971161;28;96780;-34
2021/12/13 05:37:57;;;;;;;5.10;2.20;;;;;;;8.96;92.01;102638.28;4972865;28;96435;-34
2021/12/13 05:40:31;;;;;;;4.18;2.80;;;;;;;8.96;91.86;102635.56;4970128;28;101247;-34
2021/12/13 05:43:00;;;;;;;6.15;3.10;;;;;;;8.95;91.78;102628.41;4971398;28;101035;-34
2021/12/13 05:45:36;;;;;;;10.40;2.53;;;;;;;9.00;92.19;102637.28;4970807;28;96778;-34
2021/12/13 05:48:11;;;;;;;5.60;3.03;;;;;;;9.00;92.06;102634.56;4972981;28;96475;-34
2021/12/13 05:50:41;;;;;;;5.15;2.65;;;;;;;8.91;91.14;102628.50;4970627;28;104953;-34
2021/12/13 05:53:16;;;;;;;6.28;2.67;;;;;;;8.91;91.61;102623.09;4971291;28;101042;-34
2021/12/13 05:56:10;;;;;;;8.27;3.20;;;;;;;8.94;91.42;102638.34;4971318;28;96855;-34
2021/12/13 05:58:53;;;;;;;13.25;3.30;;;;;;;8.96;91.60;102647.25;4972666;28;96692;-34
2021/12/13 06:01:26;;;;;;;;;;;;;;;8.96;91.84;102647.25;4971395;28;101139;-34
2021/12/13 06:04:10;;;;;;;6.25;3.38;;;;;;;8.93;91.42;102642.81;4971994;28;100048;-34
2021/12/13 06:07:11;;;;;;;7.28;4.10;;;;;;;8.97;91.84;102648.19;4971067;28;96632;-34
2021/12/13 06:09:48;;;;;;;8.45;3.47;;;;;;;8.95;91.54;102644.63;4970994;28;96817;-34
2021/12/13 06:12:34;;;;;;;9.20;2.90;;;;;;;8.96;91.35;102647.25;4970434;28;101089;-34
2021/12/13 06:15:31;;;;;;;4.55;2.65;;;;;;;8.95;91.13;102639.22;4973543;28;113038;-34
2021/12/13 06:18:05;;;;;;;7.05;2.95;;;;;;;8.95;91.46;102645.50;4972779;28;96817;-34
2021/12/13 06:20:43;;;;;;;8.05;3.80;;;;;;;8.95;91.35;102652.72;4971989;28;102411;-34
2021/12/13 06:23:13;;;;;;;7.80;3.63;;;;;;;8.93;91.30;102644.66;4970812;28;100825;-34
2021/12/13 06:25:41;;;;;;;7.50;3.85;;;;;;;8.92;91.64;102651.00;4972178;28;97825;-34
2021/12/13 06:28:17;;;;;;;7.38;4.50;;;;;;;8.84;90.94;102643.09;4970851;28;96565;-34
2021/12/13 06:30:53;;;;;;;7.93;3.58;;;;;;;8.91;91.58;102655.50;4970826;28;96744;-35
2021/12/13 06:33:18;;;;;;;6.30;3.55;;;;;;;8.89;91.67;102654.66;4971811;28;99507;-34
2021/12/13 06:35:56;;;;;;;8.32;3.72;;;;;;;8.92;91.22;102654.56;4972010;28;97603;-34
2021/12/13 06:38:42;;;;;;;7.70;3.95;;;;;;;8.90;91.08;102647.44;4970175;28;97116;-34
2021/12/13 06:41:10;;;;;;;6.57;3.60;;;;;;;8.86;91.45;102638.50;4970588;28;96702;-34
2021/12/13 06:43:48;;;;;;;7.35;4.18;;;;;;;8.92;91.79;102653.69;4971566;28;109317;-34
2021/12/13 06:46:32;;;;;;;7.18;3.78;;;;;;;8.90;91.32;102651.03;4970524;28;100716;-34
2021/12/13 06:49:21;;;;;;;11.90;4.55;;;;;;;8.85;91.50;102650.25;4970537;28;96691;-34
2021/12/13 06:51:49;;;;;;;11.23;4.65;;;;;;;8.91;91.73;102660.91;4972442;28;96840;-34
2021/12/13 06:54:20;;;;;;;8.38;3.78;;;;;;;8.92;91.61;102659.09;4974991;28;97908;-34
2021/12/13 06:56:54;;;;;;;7.30;4.00;;;;;;;8.87;91.40;102648.41;4975552;28;97869;-34
2021/12/13 06:59:19;;;;;;;12.48;5.80;;;;;;;8.90;91.54;102661.81;4975275;28;96499;-34
2021/12/13 07:02:01;;;;;;;8.25;4.78;;;;;;;8.88;91.56;102652.00;4975307;28;96661;-34
2021/12/13 07:04:35;;;;;;;8.43;3.77;;;;;;;8.89;91.27;102656.44;4974292;28;97857;-34
2021/12/13 07:07:12;;;;;;;10.52;4.50;;;;;;;8.91;91.31;102670.81;4973728;28;99955;-34
2021/12/13 07:09:38;;;;;;;8.35;4.88;;;;;;;8.90;91.27;102678.03;4975184;28;96802;-34
2021/12/13 07:12:14;;;;;;;10.73;4.00;;;;;;;8.90;91.35;102671.75;4974964;28;96902;-34
2021/12/13 07:14:39;;;;;;;9.70;4.43;;;;;;;8.92;91.33;102678.03;4973630;28;100877;-34
2021/12/13 07:17:21;;;;;;;9.90;3.85;;;;;;;8.88;90.89;102682.59;4975026;28;98463;-34
2021/12/13 07:19:51;;;;;;;8.10;4.25;;;;;;;8.92;91.29;102681.59;4973549;28;96694;-34
2021/12/13 07:22:29;;;;;;;14.60;5.82;;;;;;;8.90;91.04;102686.16;4973945;28;96844;-34
2021/12/13 07:25:06;;;;;;;9.77;4.22;;;;;;;8.89;91.06;102683.47;4973451;28;100506;-34
2021/12/13 07:27:35;;;;;;;9.43;4.88;;;;;;;8.87;91.36;102678.13;4973288;28;100700;-34
2021/12/13 07:30:11;;;;;;;15.98;4.95;;;;;;;8.92;91.33;102695.13;4972791;28;97128;-34
2021/12/13 07:32:41;;;;;;;12.43;5.53;;;;;;;8.83;91.39;102676.41;4974811;28;96679;-34
2021/12/13 07:35:20;;;;;;;8.90;4.45;;;;;;;8.91;91.38;102690.66;4972989;28;101358;-34
2021/12/13 07:38:05;;;;;;;12.25;5.45;;;;;;;8.85;91.50;102688.09;4973265;28;101422;-34
2021/12/13 07:40:40;;;;;;;15.05;5.45;;;;;;;8.87;91.39;102688.94;4973286;28;97337;-34
2021/12/13 07:43:11;;;;;;;17.25;5.32;;;;;;;8.89;91.54;102702.41;4974298;28;96691;-34
2021/12/13 07:46:09;;;;;;;12.97;4.53;;;;;;;8.86;91.14;102706.06;4974600;28;97859;-34
2021/12/13 07:48:40;;;;;;;15.65;5.32;;;;;;;8.81;91.42;102707.09;4983903;28;97339;-34
2021/12/13 07:51:11;;;;;;;18.42;5.32;;;;;;;8.85;91.61;102720.50;4974178;28;106806;-34
2021/12/13 07:53:43;;;;;;;10.00;4.93;;;;;;;8.83;91.42;102711.53;4974096;28;96697;-34
2021/12/13 07:56:11;;;;;;;11.43;4.90;;;;;;;8.84;91.41;102720.53;4974012;28;97503;-34
2021/12/13 07:58:42;;;;;;;11.70;5.93;;;;;;;8.79;91.43;102706.25;4972602;28;101069;-34
2021/12/13 08:01:21;;;;;;;12.77;4.95;;;;;;;8.82;91.45;102714.28;4973108;28;96592;-34
2021/12/13 08:03:51;;;;;;;8.50;4.97;;;;;;;8.85;91.28;102715.09;4971348;28;96749;-33
2021/12/13 08:06:17;;;;;;;12.20;4.85;;;;;;;8.81;91.31;102709.81;4972582;28;101491;-34
2021/12/13 08:08:51;;;;;;;13.07;4.97;;;;;;;8.84;91.43;102717.84;4974095;28;97777;-34
2021/12/13 08:11:18;;;;;;;18.98;5.68;;;;;;;8.80;91.46;102717.03;4972654;28;96570;-34
2021/12/13 08:13:57;;;;;;;15.48;5.82;;;;;;;8.86;91.55;102722.28;4973093;28;96907;-34
2021/12/13 08:16:38;;;;;;;11.85;4.88;;;;;;;8.84;91.82;102729.56;4972320;28;101006;-34
2021/12/13 08:19:13;;;;;;;11.33;4.77;;;;;;;8.87;91.39;102728.59;4972630;28;101274;-34
2021/12/13 08:21:45;;;;;;;14.23;5.20;;;;;;;8.85;91.50;102725.91;4973609;28;96576;-34
2021/12/13 08:24:19;;;;;;;11.93;6.97;;;;;;;8.81;91.60;102713.41;4974086;28;96721;-34
2021/12/13 08:26:44;;;;;;;12.13;5.75;;;;;;;8.79;91.47;102712.53;4972075;28;100858;-34
2021/12/13 08:29:18;;;;;;;7.20;3.53;;;;;;;8.84;91.43;102723.25;4973747;28;97339;-34
2021/12/13 08:31:46;;;;;;;11.75;4.60;;;;;;;8.80;91.60;102714.34;4972354;28;96518;-34
2021/12/13 08:34:22;;;;;;;16.33;6.32;;;;;;;8.76;91.81;102704.53;4972299;28;96826;-34
2021/12/13 08:36:50;;;;;;;12.82;5.55;;;;;;;8.79;91.58;102704.44;4973792;28;97430;-34
2021/12/13 08:39:26;;;;;;;8.13;4.50;;;;;;;8.83;91.67;102714.25;4972388;28;100896;-34
2021/12/13 08:42:15;;;;;;;11.65;5.05;;;;;;;8.83;91.51;102721.47;4973525;28;96523;-35
2021/12/13 08:44:54;;;;;;;10.27;4.30;;;;;;;8.84;91.47;102718.75;4973536;28;96571;-34
2021/12/13 08:47:24;;;;;;;8.68;4.07;;;;;;;8.82;91.43;102716.97;4971586;28;100962;-35
2021/12/13 08:49:55;;;;;;;13.90;6.45;;;;;;;8.83;91.79;102714.25;4971849;28;101041;-34
2021/12/13 08:52:38;;;;;;;6.50;4.00;;;;;;;8.83;91.26;102721.47;4972130;28;96499;-34
2021/12/13 08:55:12;;;;;;;12.95;6.05;;;;;;;8.85;91.48;102725.03;4971897;28;96686;-34
2021/12/13 08:58:03;;;;;;;10.40;4.07;;;;;;;8.87;91.74;102734.00;4972890;28;112589;-34
2021/12/13 09:00:32;;;;;;;7.45;3.47;;;;;;;8.83;91.38;102729.59;4980571;28;98023;-34
2021/12/13 09:03:10;;;;;;;14.48;6.20;;;;;;;8.88;91.55;102747.44;4971964;28;96697;-34
2021/12/13 09:05:40;;;;;;;9.23;4.80;;;;;;;8.86;91.36;102738.50;4973036;28;98365;-34
2021/12/13 09:08:13;;;;;;;10.82;4.45;;;;;;;8.82;91.39;102730.50;4971891;28;101176;-34
2021/12/13 09:10:51;;;;;;;15.68;5.18;;;;;;;8.93;91.82;102750.03;4971642;28;101202;-34
2021/12/13 09:13:31;;;;;;;13.40;6.22;;;;;;;8.92;91.48;102762.69;4971253;28;97401;-34
2021/12/13 09:15:58;;;;;;;16.10;4.70;;;;;;;8.91;91.58;102762.69;4971537;28;98864;-34
2021/12/13 09:18:24;;;;;;;11.70;5.85;;;;;;;8.92;91.36;102768.09;4971560;28;100459;-34
2021/12/13 09:20:54;;;;;;;14.20;6.10;;;;;;;8.93;91.37;102772.53;4972427;28;113157;-34
2021/12/13 09:23:27;;;;;;;11.52;5.22;;;;;;;8.96;91.43;102774.28;4971762;28;96665;-34
2021/12/13 09:26:09;;;;;;;14.05;5.50;;;;;;;8.95;91.42;102780.63;4971616;28;96959;-34
2021/12/13 09:28:57;;;;;;;9.90;3.60;;;;;;;8.99;91.12;102786.88;4971423;28;100106;-34
2021/12/13 09:31:33;;;;;;;13.80;5.85;;;;;;;8.96;91.20;102782.41;4971422;28;101243;-34
2021/12/13 09:34:05;;;;;;;17.05;5.78;;;;;;;8.95;91.08;102779.75;4971276;28;96866;-34
2021/12/13 09:36:38;;;;;;;10.85;5.32;;;;;;;8.98;91.24;102782.38;4971738;28;96729;-34
2021/12/13 09:39:18;;;;;;;13.18;5.88;;;;;;;8.96;91.18;102782.41;4970757;28;101327;-34
2021/12/13 09:41:47;;;;;;;12.70;5.55;;;;;;;9.06;90.96;102802.03;4972578;28;99591;-34
2021/12/13 09:44:33;;;;;;;11.60;4.78;;;;;;;9.04;91.01;102795.75;4971296;28;96745;-34
2021/12/13 09:47:11;;;;;;;14.23;5.82;;;;;;;9.08;91.03;102809.16;4971405;28;96752;-34
2021/12/13 09:49:42;;;;;;;8.32;3.60;;;;;;;9.06;91.11;102802.03;4971282;28;100782;-34
2021/12/13 09:52:26;;;;;;;8.75;4.32;;;;;;;9.09;90.72;102808.22;4970985;28;101520;-34
2021/12/13 09:54:59;;;;;;;9.75;4.30;;;;;;;9.14;90.91;102816.22;4971079;28;96542;-34
2021/12/13 10:01:10;;;;;;;8.05;3.55;;;;;;;9.13;90.87;102809.06;4978196;28;97233;-34
2021/12/13 10:03:51;;;;;;;18.00;5.75;;;;;;;9.16;90.91;102813.50;4971670;28;99482;-34
2021/12/13 10:06:36;;;;;;;10.48;3.33;;;;;;;9.10;90.64;102807.28;4970727;28;97003;-34
2021/12/13 10:09:09;;;;;;;16.35;5.10;;;;;;;9.14;90.53;102809.00;4972676;28;96570;-34
2021/12/13 10:11:40;;;;;;;9.80;3.88;;;;;;;9.15;90.75;102804.47;4972198;28;99285;-34
2021/12/13 10:14:08;;;;;;;11.50;3.47;;;;;;;9.12;90.50;102808.13;4970777;28;100703;-34
2021/12/13 10:16:37;;;;;;;16.02;5.65;;;;;;;9.16;90.43;102805.38;4972369;28;96501;-34
2021/12/13 10:19:06;;;;;;;18.90;5.72;;;;;;;9.18;90.57;102807.13;4970981;28;96823;-34
2021/12/13 10:21:40;;;;;;;10.40;4.45;;;;;;;9.21;90.75;102816.97;4954656;28;100950;-34
2021/12/13 10:24:17;;;;;;;14.82;5.47;;;;;;;9.25;90.85;102816.00;4971073;28;100737;-34
2021/12/13 10:26:44;;;;;;;10.10;4.70;;;;;;;9.27;90.71;102816.81;4975185;28;96546;-34
2021/12/13 10:29:14;;;;;;;14.02;5.05;;;;;;;9.25;90.73;102816.88;4977377;28;96844;-34
2021/12/13 10:31:45;;;;;;;14.38;5.00;;;;;;;9.28;90.93;102811.38;4976471;28;101106;-34
2021/12/13 10:34:34;;;;;;;15.00;5.50;;;;;;;9.32;90.87;102812.22;4978436;28;97483;-34
2021/12/13 10:37:05;;;;;;;16.13;5.50;;;;;;;9.29;90.63;102807.72;4978371;28;96567;-34
2021/12/13 10:39:40;;;;;;;11.98;4.75;;;;;;;9.33;90.74;102820.25;4977433;28;96797;-34
2021/12/13 10:42:14;;;;;;;17.35;6.25;;;;;;;9.35;90.60;102809.41;4976844;28;104195;-34
2021/12/13 10:44:44;;;;;;;11.75;4.07;;;;;;;9.33;90.51;102798.63;4976980;28;100867;-34
2021/12/13 10:47:15;;;;;;;14.20;6.07;;;;;;;9.36;90.64;102797.66;4977162;28;96598;-34
2021/12/13 10:49:44;;;;;;;6.68;3.75;;;;;;;9.35;89.97;102801.31;4977524;28;96868;-34
2021/12/13 10:52:17;;;;;;;12.05;4.63;;;;;;;9.37;89.91;102810.28;4976827;28;100917;-34
2021/12/13 10:54:47;;;;;;;15.57;5.53;;;;;;;9.38;90.41;102798.50;4977797;28;99252;-34
2021/12/13 10:57:21;;;;;;;9.00;4.15;;;;;;;9.33;90.25;102793.22;4976522;28;96543;-34
2021/12/13 10:59:49;;;;;;;10.80;4.85;;;;;;;9.39;90.48;102799.38;4977094;28;97100;-34
2021/12/13 11:02:19;;;;;;;14.10;4.45;;;;;;;9.38;90.16;102803.03;4976745;28;100989;-34
2021/12/13 11:04:53;;;;;;;14.23;4.78;;;;;;;9.40;90.45;102804.78;4976527;28;101943;-34
2021/12/13 11:07:19;;;;;;;12.85;5.03;;;;;;;9.41;90.89;102801.13;4976921;28;96508;-34
2021/12/13 11:09:47;;;;;;;14.68;4.97;;;;;;;9.44;90.38;102800.16;4978472;28;96677;-34
2021/12/13 11:12:19;;;;;;;10.18;4.65;;;;;;;9.40;90.50;102793.97;4976742;28;101415;-34
2021/12/13 11:14:45;;;;;;;;;;;;;;;9.46;90.46;102803.72;4977527;28;100992;-34
2021/12/13 11:17:16;;;;;;;8.73;3.38;;;;;;;9.40;90.15;102790.38;4978370;28;96653;-34
2021/12/13 11:19:47;;;;;;;7.03;3.53;;;;;;;9.43;90.19;102793.00;4976652;28;96858;-34
2021/12/13 11:22:17;;;;;;;11.20;4.30;;;;;;;9.46;90.17;102798.31;4976226;28;99530;-34
2021/12/13 11:24:46;;;;;;;15.90;6.03;;;;;;;9.41;90.22;102789.44;4977876;28;97763;-34
2021/12/13 11:27:17;;;;;;;16.35;5.78;;;;;;;9.41;90.11;102784.91;4976731;28;96497;-34
2021/12/13 11:29:44;;;;;;;9.52;3.70;;;;;;;9.43;90.09;102782.16;4976646;28;96713;-34
2021/12/13 11:32:34;;;;;;;15.50;4.38;;;;;;;9.48;90.19;102788.34;4976319;28;100640;-34
2021/12/13 11:35:47;;;;;;;11.55;4.03;;;;;;;9.40;89.94;102774.13;4977751;28;98647;-34
2021/12/13 11:38:40;;;;;;;11.20;3.70;;;;;;;9.49;89.87;102776.63;4983674;28;97040;-34
2021/12/13 11:41:44;;;;;;;10.27;5.00;;;;;;;9.52;90.26;102784.63;4975223;28;96589;-34
2021/12/13 11:44:31;;;;;;;7.60;3.38;;;;;;;9.52;89.76;102788.22;4973176;28;100815;-34
2021/12/13 11:47:27;;;;;;;12.75;5.07;;;;;;;9.53;89.67;102795.44;4973116;28;100857;-34
2021/12/13 11:49:55;;;;;;;11.45;3.92;;;;;;;9.52;89.69;102790.06;4974246;28;96726;-34
2021/12/13 11:52:45;;;;;;;13.32;4.07;;;;;;;9.49;89.90;102779.31;4974427;28;96699;-34
2021/12/13 11:55:29;;;;;;;17.02;3.75;;;;;;;9.52;89.26;102790.94;4972630;28;101058;-34
2021/12/13 11:58:19;;;;;;;10.63;5.03;;;;;;;9.55;89.61;102787.25;4972795;28;100911;-34
2021/12/13 12:01:22;;;;;;;13.05;5.40;;;;;;;9.60;89.61;102785.31;4974509;28;96528;-34
2021/12/13 12:04:24;;;;;;;10.07;3.75;;;;;;;9.60;89.60;102785.31;4974027;28;96966;-34
2021/12/13 12:07:10;;;;;;;7.82;3.75;;;;;;;9.60;89.71;102784.44;4974490;28;97215;-34
2021/12/13 12:10:00;;;;;;;9.23;3.65;;;;;;;9.59;89.22;102788.97;4974302;28;98435;-34
2021/12/13 12:12:56;;;;;;;12.23;4.72;;;;;;;9.61;89.40;102795.22;4974274;28;96612;-34
2021/12/13 12:15:23;;;;;;;9.07;4.47;;;;;;;9.61;89.68;102787.09;4973946;28;96643;-34
2021/12/13 12:17:50;;;;;;;9.68;3.58;;;;;;;9.62;89.27;102783.47;4971871;28;100931;-34
2021/12/13 12:20:22;;;;;;;13.13;4.28;;;;;;;9.61;89.58;102773.59;4972360;28;100813;-34